sensor_id;sensor_type;location;lat;lon;timestamp;P1;durP1;ratioP1;P2;durP2;ratioP2
50543;SDS011;41176;44.032;20.900;2022-09-09T00:04:43;3.25;;;1.50;;
50543;SDS011;41176;44.032;20.900;2022-09-09T00:10:51;2.40;;;1.10;;
50543;SDS011;41176;44.032;20.900;2022-09-09T00:21:37;4.30;;;1.20;;
50543;SDS011;41176;44.032;20.900;2022-09-09T00:24:10;3.17;;;1.60;;
50543;SDS011;41176;44.032;20.900;2022-09-09T00:27:01;3.03;;;1.33;;
50543;SDS011;41176;44.032;20.900;2022-09-09T00:29:45;3.10;;;1.30;;
50543;SDS011;41176;44.032;20.900;2022-09-09T00:32:27;4.18;;;1.80;;
50543;SDS011;41176;44.032;20.900;2022-09-09T00:35:10;2.47;;;1.50;;
50543;SDS011;41176;44.032;20.900;2022-09-09T00:37:46;2.03;;;1.05;;
50543;SDS011;41176;44.032;20.900;2022-09-09T00:43:39;3.13;;;1.50;;
50543;SDS011;41176;44.032;20.900;2022-09-09T00:46:22;3.13;;;1.30;;
50543;SDS011;41176;44.032;20.900;2022-09-09T00:57:32;3.22;;;1.70;;
50543;SDS011;41176;44.032;20.900;2022-09-09T01:09:15;2.70;;;1.13;;
50543;SDS011;41176;44.032;20.900;2022-09-09T01:14:49;3.13;;;1.25;;
50543;SDS011;41176;44.032;20.900;2022-09-09T01:17:34;4.10;;;1.75;;
50543;SDS011;41176;44.032;20.900;2022-09-09T01:20:33;4.35;;;1.42;;
50543;SDS011;41176;44.032;20.900;2022-09-09T01:23:19;5.07;;;1.40;;
50543;SDS011;41176;44.032;20.900;2022-09-09T01:26:36;2.70;;;1.25;;
50543;SDS011;41176;44.032;20.900;2022-09-09T01:28:48;2.47;;;1.30;;
50543;SDS011;41176;44.032;20.900;2022-09-09T01:31:34;3.25;;;1.30;;
50543;SDS011;41176;44.032;20.900;2022-09-09T01:34:11;2.50;;;1.10;;
50543;SDS011;41176;44.032;20.900;2022-09-09T01:36:45;3.22;;;1.40;;
50543;SDS011;41176;44.032;20.900;2022-09-09T01:39:18;3.35;;;1.50;;
50543;SDS011;41176;44.032;20.900;2022-09-09T01:41:45;3.53;;;1.60;;
50543;SDS011;41176;44.032;20.900;2022-09-09T01:44:14;3.42;;;1.17;;
50543;SDS011;41176;44.032;20.900;2022-09-09T01:46:40;2.30;;;1.13;;
50543;SDS011;41176;44.032;20.900;2022-09-09T01:49:07;5.65;;;1.48;;
50543;SDS011;41176;44.032;20.900;2022-09-09T01:51:35;2.38;;;1.08;;
50543;SDS011;41176;44.032;20.900;2022-09-09T01:54:03;2.40;;;1.20;;
50543;SDS011;41176;44.032;20.900;2022-09-09T01:56:40;1.80;;;0.82;;
50543;SDS011;41176;44.032;20.900;2022-09-09T02:02:26;2.47;;;1.10;;
50543;SDS011;41176;44.032;20.900;2022-09-09T02:07:49;4.00;;;1.58;;
50543;SDS011;41176;44.032;20.900;2022-09-09T02:10:22;2.15;;;1.13;;
50543;SDS011;41176;44.032;20.900;2022-09-09T02:13:10;2.28;;;1.02;;
50543;SDS011;41176;44.032;20.900;2022-09-09T02:15:55;1.73;;;0.93;;
50543;SDS011;41176;44.032;20.900;2022-09-09T02:18:32;3.40;;;1.55;;
50543;SDS011;41176;44.032;20.900;2022-09-09T02:21:04;4.15;;;1.23;;
50543;SDS011;41176;44.032;20.900;2022-09-09T02:23:31;3.40;;;1.20;;
50543;SDS011;41176;44.032;20.900;2022-09-09T02:25:59;2.78;;;1.17;;
50543;SDS011;41176;44.032;20.900;2022-09-09T02:28:27;2.00;;;1.17;;
50543;SDS011;41176;44.032;20.900;2022-09-09T02:30:56;3.75;;;1.80;;
50543;SDS011;41176;44.032;20.900;2022-09-09T02:33:24;2.97;;;1.55;;
50543;SDS011;41176;44.032;20.900;2022-09-09T02:35:53;3.25;;;1.60;;
50543;SDS011;41176;44.032;20.900;2022-09-09T02:38:26;3.55;;;1.30;;
50543;SDS011;41176;44.032;20.900;2022-09-09T02:40:54;2.90;;;1.40;;
50543;SDS011;41176;44.032;20.900;2022-09-09T02:43:20;1.88;;;1.15;;
50543;SDS011;41176;44.032;20.900;2022-09-09T02:48:34;3.15;;;1.10;;
50543;SDS011;41176;44.032;20.900;2022-09-09T02:54:20;3.42;;;1.13;;
50543;SDS011;41176;44.032;20.900;2022-09-09T02:56:51;2.45;;;1.20;;
50543;SDS011;41176;44.032;20.900;2022-09-09T02:59:21;2.63;;;1.30;;
50543;SDS011;41176;44.032;20.900;2022-09-09T03:01:50;3.10;;;1.70;;
50543;SDS011;41176;44.032;20.900;2022-09-09T03:04:15;4.03;;;1.58;;
50543;SDS011;41176;44.032;20.900;2022-09-09T03:06:42;2.67;;;1.20;;
50543;SDS011;41176;44.032;20.900;2022-09-09T03:09:08;3.30;;;1.10;;
50543;SDS011;41176;44.032;20.900;2022-09-09T03:11:35;1.67;;;0.88;;
50543;SDS011;41176;44.032;20.900;2022-09-09T03:14:01;3.17;;;1.02;;
50543;SDS011;41176;44.032;20.900;2022-09-09T03:16:27;3.25;;;1.65;;
50543;SDS011;41176;44.032;20.900;2022-09-09T03:18:55;2.97;;;1.20;;
50543;SDS011;41176;44.032;20.900;2022-09-09T03:21:21;3.03;;;1.35;;
50543;SDS011;41176;44.032;20.900;2022-09-09T03:23:46;2.30;;;1.25;;
50543;SDS011;41176;44.032;20.900;2022-09-09T03:26:13;2.53;;;1.17;;
50543;SDS011;41176;44.032;20.900;2022-09-09T03:28:40;2.20;;;1.33;;
50543;SDS011;41176;44.032;20.900;2022-09-09T03:31:07;2.55;;;1.20;;
50543;SDS011;41176;44.032;20.900;2022-09-09T03:33:35;4.63;;;1.77;;
50543;SDS011;41176;44.032;20.900;2022-09-09T03:36:02;2.60;;;1.20;;
50543;SDS011;41176;44.032;20.900;2022-09-09T03:38:29;3.60;;;1.42;;
50543;SDS011;41176;44.032;20.900;2022-09-09T03:40:56;3.10;;;0.88;;
50543;SDS011;41176;44.032;20.900;2022-09-09T03:43:25;2.25;;;0.77;;
50543;SDS011;41176;44.032;20.900;2022-09-09T03:45:52;2.03;;;0.95;;
50543;SDS011;41176;44.032;20.900;2022-09-09T03:48:22;2.28;;;1.00;;
50543;SDS011;41176;44.032;20.900;2022-09-09T03:50:49;2.88;;;1.15;;
50543;SDS011;41176;44.032;20.900;2022-09-09T03:53:17;2.90;;;1.42;;
50543;SDS011;41176;44.032;20.900;2022-09-09T03:55:47;2.08;;;0.90;;
50543;SDS011;41176;44.032;20.900;2022-09-09T03:58:15;3.25;;;1.40;;
50543;SDS011;41176;44.032;20.900;2022-09-09T04:00:44;3.65;;;1.23;;
50543;SDS011;41176;44.032;20.900;2022-09-09T04:03:19;3.33;;;1.10;;
50543;SDS011;41176;44.032;20.900;2022-09-09T04:05:44;2.95;;;1.23;;
50543;SDS011;41176;44.032;20.900;2022-09-09T04:08:14;4.18;;;1.50;;
50543;SDS011;41176;44.032;20.900;2022-09-09T04:10:40;2.17;;;1.10;;
50543;SDS011;41176;44.032;20.900;2022-09-09T04:13:07;3.70;;;1.20;;
50543;SDS011;41176;44.032;20.900;2022-09-09T04:15:32;3.55;;;1.13;;
50543;SDS011;41176;44.032;20.900;2022-09-09T04:18:00;3.88;;;1.15;;
50543;SDS011;41176;44.032;20.900;2022-09-09T04:20:26;4.03;;;1.98;;
50543;SDS011;41176;44.032;20.900;2022-09-09T04:22:53;3.88;;;1.45;;
50543;SDS011;41176;44.032;20.900;2022-09-09T04:25:19;2.45;;;1.20;;
50543;SDS011;41176;44.032;20.900;2022-09-09T04:27:45;2.53;;;0.95;;
50543;SDS011;41176;44.032;20.900;2022-09-09T04:30:12;3.28;;;1.50;;
50543;SDS011;41176;44.032;20.900;2022-09-09T04:32:38;4.07;;;1.13;;
50543;SDS011;41176;44.032;20.900;2022-09-09T04:35:04;2.97;;;1.23;;
50543;SDS011;41176;44.032;20.900;2022-09-09T04:37:30;2.22;;;1.00;;
50543;SDS011;41176;44.032;20.900;2022-09-09T04:39:56;3.08;;;1.30;;
50543;SDS011;41176;44.032;20.900;2022-09-09T04:42:21;3.33;;;1.40;;
50543;SDS011;41176;44.032;20.900;2022-09-09T04:44:47;2.95;;;1.27;;
50543;SDS011;41176;44.032;20.900;2022-09-09T04:47:13;5.57;;;1.42;;
50543;SDS011;41176;44.032;20.900;2022-09-09T04:49:42;2.70;;;1.00;;
50543;SDS011;41176;44.032;20.900;2022-09-09T04:52:08;3.45;;;1.50;;
50543;SDS011;41176;44.032;20.900;2022-09-09T04:54:34;3.67;;;1.45;;
50543;SDS011;41176;44.032;20.900;2022-09-09T04:57:03;2.63;;;1.55;;
50543;SDS011;41176;44.032;20.900;2022-09-09T04:59:30;2.10;;;1.20;;
50543;SDS011;41176;44.032;20.900;2022-09-09T05:01:56;2.78;;;1.50;;
50543;SDS011;41176;44.032;20.900;2022-09-09T05:04:23;3.20;;;1.52;;
50543;SDS011;41176;44.032;20.900;2022-09-09T05:06:48;3.78;;;0.90;;
50543;SDS011;41176;44.032;20.900;2022-09-09T05:09:15;2.78;;;1.15;;
50543;SDS011;41176;44.032;20.900;2022-09-09T05:11:41;3.40;;;1.60;;
50543;SDS011;41176;44.032;20.900;2022-09-09T05:14:08;2.80;;;1.40;;
50543;SDS011;41176;44.032;20.900;2022-09-09T05:16:36;2.47;;;1.25;;
50543;SDS011;41176;44.032;20.900;2022-09-09T05:19:02;3.35;;;1.25;;
50543;SDS011;41176;44.032;20.900;2022-09-09T05:21:28;2.45;;;1.17;;
50543;SDS011;41176;44.032;20.900;2022-09-09T05:23:55;2.45;;;1.20;;
50543;SDS011;41176;44.032;20.900;2022-09-09T05:26:22;3.33;;;1.17;;
50543;SDS011;41176;44.032;20.900;2022-09-09T05:28:48;2.88;;;1.20;;
50543;SDS011;41176;44.032;20.900;2022-09-09T05:31:14;4.43;;;1.05;;
50543;SDS011;41176;44.032;20.900;2022-09-09T05:33:42;6.57;;;1.80;;
50543;SDS011;41176;44.032;20.900;2022-09-09T05:36:11;3.00;;;1.40;;
50543;SDS011;41176;44.032;20.900;2022-09-09T05:38:39;3.30;;;1.50;;
50543;SDS011;41176;44.032;20.900;2022-09-09T05:41:05;1.70;;;1.17;;
50543;SDS011;41176;44.032;20.900;2022-09-09T05:43:32;3.20;;;1.30;;
50543;SDS011;41176;44.032;20.900;2022-09-09T05:46:05;2.85;;;1.30;;
50543;SDS011;41176;44.032;20.900;2022-09-09T05:48:37;2.50;;;1.10;;
50543;SDS011;41176;44.032;20.900;2022-09-09T05:51:11;2.97;;;1.20;;
50543;SDS011;41176;44.032;20.900;2022-09-09T05:53:41;2.75;;;1.33;;
50543;SDS011;41176;44.032;20.900;2022-09-09T05:56:13;2.85;;;1.27;;
50543;SDS011;41176;44.032;20.900;2022-09-09T05:58:43;3.72;;;1.48;;
50543;SDS011;41176;44.032;20.900;2022-09-09T06:01:15;3.00;;;1.60;;
50543;SDS011;41176;44.032;20.900;2022-09-09T06:03:44;2.00;;;1.02;;
50543;SDS011;41176;44.032;20.900;2022-09-09T06:06:20;4.00;;;1.45;;
50543;SDS011;41176;44.032;20.900;2022-09-09T06:08:47;3.22;;;1.42;;
50543;SDS011;41176;44.032;20.900;2022-09-09T06:11:17;3.63;;;1.90;;
50543;SDS011;41176;44.032;20.900;2022-09-09T06:13:44;3.47;;;1.33;;
50543;SDS011;41176;44.032;20.900;2022-09-09T06:16:11;4.55;;;2.05;;
50543;SDS011;41176;44.032;20.900;2022-09-09T06:18:45;1.80;;;0.82;;
50543;SDS011;41176;44.032;20.900;2022-09-09T06:21:15;4.07;;;1.40;;
50543;SDS011;41176;44.032;20.900;2022-09-09T06:23:43;4.68;;;1.52;;
50543;SDS011;41176;44.032;20.900;2022-09-09T06:26:10;2.17;;;1.10;;
50543;SDS011;41176;44.032;20.900;2022-09-09T06:28:43;3.17;;;1.45;;
50543;SDS011;41176;44.032;20.900;2022-09-09T06:31:15;2.45;;;1.30;;
50543;SDS011;41176;44.032;20.900;2022-09-09T06:33:46;2.13;;;0.82;;
50543;SDS011;41176;44.032;20.900;2022-09-09T06:36:18;2.53;;;1.30;;
50543;SDS011;41176;44.032;20.900;2022-09-09T06:38:49;2.65;;;1.00;;
50543;SDS011;41176;44.032;20.900;2022-09-09T06:41:17;2.13;;;1.05;;
50543;SDS011;41176;44.032;20.900;2022-09-09T06:43:47;3.75;;;1.38;;
50543;SDS011;41176;44.032;20.900;2022-09-09T06:46:15;3.42;;;1.23;;
50543;SDS011;41176;44.032;20.900;2022-09-09T06:49:01;3.47;;;1.52;;
50543;SDS011;41176;44.032;20.900;2022-09-09T06:51:35;2.20;;;1.08;;
50543;SDS011;41176;44.032;20.900;2022-09-09T06:54:15;2.17;;;0.90;;
50543;SDS011;41176;44.032;20.900;2022-09-09T06:56:46;2.30;;;1.10;;
50543;SDS011;41176;44.032;20.900;2022-09-09T06:59:18;3.00;;;1.15;;
50543;SDS011;41176;44.032;20.900;2022-09-09T07:01:45;2.47;;;1.20;;
50543;SDS011;41176;44.032;20.900;2022-09-09T07:04:13;2.33;;;0.88;;
50543;SDS011;41176;44.032;20.900;2022-09-09T07:06:42;1.83;;;1.00;;
50543;SDS011;41176;44.032;20.900;2022-09-09T07:09:18;3.80;;;1.83;;
50543;SDS011;41176;44.032;20.900;2022-09-09T07:11:48;3.08;;;1.42;;
50543;SDS011;41176;44.032;20.900;2022-09-09T07:14:18;3.78;;;1.30;;
50543;SDS011;41176;44.032;20.900;2022-09-09T07:16:46;2.65;;;1.10;;
50543;SDS011;41176;44.032;20.900;2022-09-09T07:19:24;2.67;;;1.10;;
50543;SDS011;41176;44.032;20.900;2022-09-09T07:21:59;2.15;;;1.13;;
50543;SDS011;41176;44.032;20.900;2022-09-09T07:24:28;2.25;;;0.85;;
50543;SDS011;41176;44.032;20.900;2022-09-09T07:26:55;2.92;;;1.30;;
50543;SDS011;41176;44.032;20.900;2022-09-09T07:29:21;3.13;;;1.00;;
50543;SDS011;41176;44.032;20.900;2022-09-09T07:31:50;2.47;;;0.90;;
50543;SDS011;41176;44.032;20.900;2022-09-09T07:34:16;1.83;;;0.70;;
50543;SDS011;41176;44.032;20.900;2022-09-09T07:36:43;3.03;;;1.30;;
50543;SDS011;41176;44.032;20.900;2022-09-09T07:39:11;4.75;;;0.88;;
50543;SDS011;41176;44.032;20.900;2022-09-09T07:41:39;2.30;;;1.00;;
50543;SDS011;41176;44.032;20.900;2022-09-09T07:44:07;2.53;;;1.10;;
50543;SDS011;41176;44.032;20.900;2022-09-09T07:46:38;2.90;;;1.38;;
50543;SDS011;41176;44.032;20.900;2022-09-09T07:49:05;2.85;;;1.30;;
50543;SDS011;41176;44.032;20.900;2022-09-09T07:51:32;2.60;;;1.30;;
50543;SDS011;41176;44.032;20.900;2022-09-09T07:54:01;2.45;;;1.10;;
50543;SDS011;41176;44.032;20.900;2022-09-09T07:56:32;2.45;;;0.95;;
50543;SDS011;41176;44.032;20.900;2022-09-09T07:58:58;4.32;;;1.83;;
50543;SDS011;41176;44.032;20.900;2022-09-09T08:01:29;3.22;;;1.52;;
50543;SDS011;41176;44.032;20.900;2022-09-09T08:04:00;2.63;;;1.25;;
50543;SDS011;41176;44.032;20.900;2022-09-09T08:15:21;3.15;;;1.42;;
50543;SDS011;41176;44.032;20.900;2022-09-09T08:17:51;3.42;;;1.70;;
50543;SDS011;41176;44.032;20.900;2022-09-09T08:20:22;4.60;;;1.08;;
50543;SDS011;41176;44.032;20.900;2022-09-09T08:22:48;2.35;;;1.00;;
50543;SDS011;41176;44.032;20.900;2022-09-09T08:25:19;2.20;;;1.00;;
50543;SDS011;41176;44.032;20.900;2022-09-09T08:27:50;3.83;;;1.25;;
50543;SDS011;41176;44.032;20.900;2022-09-09T08:30:18;2.03;;;0.93;;
50543;SDS011;41176;44.032;20.900;2022-09-09T08:32:46;3.38;;;1.58;;
50543;SDS011;41176;44.032;20.900;2022-09-09T08:35:16;2.65;;;1.38;;
50543;SDS011;41176;44.032;20.900;2022-09-09T08:37:44;2.65;;;1.08;;
50543;SDS011;41176;44.032;20.900;2022-09-09T08:40:13;2.35;;;1.02;;
50543;SDS011;41176;44.032;20.900;2022-09-09T08:42:50;3.65;;;0.82;;
50543;SDS011;41176;44.032;20.900;2022-09-09T08:51:26;2.33;;;0.93;;
50543;SDS011;41176;44.032;20.900;2022-09-09T08:53:55;2.35;;;1.23;;
50543;SDS011;41176;44.032;20.900;2022-09-09T08:56:26;1.55;;;0.80;;
50543;SDS011;41176;44.032;20.900;2022-09-09T08:58:54;2.97;;;0.90;;
50543;SDS011;41176;44.032;20.900;2022-09-09T09:01:28;2.38;;;0.90;;
50543;SDS011;41176;44.032;20.900;2022-09-09T09:04:33;2.75;;;1.08;;
50543;SDS011;41176;44.032;20.900;2022-09-09T09:07:36;1.95;;;1.08;;
50543;SDS011;41176;44.032;20.900;2022-09-09T09:10:25;2.42;;;1.10;;
50543;SDS011;41176;44.032;20.900;2022-09-09T09:13:14;2.47;;;0.90;;
50543;SDS011;41176;44.032;20.900;2022-09-09T09:15:43;2.45;;;0.90;;
50543;SDS011;41176;44.032;20.900;2022-09-09T09:18:15;2.05;;;0.85;;
50543;SDS011;41176;44.032;20.900;2022-09-09T09:20:46;1.95;;;0.77;;
50543;SDS011;41176;44.032;20.900;2022-09-09T09:23:21;3.67;;;0.93;;
50543;SDS011;41176;44.032;20.900;2022-09-09T09:26:33;2.88;;;0.90;;
50543;SDS011;41176;44.032;20.900;2022-09-09T09:29:03;3.05;;;0.60;;
50543;SDS011;41176;44.032;20.900;2022-09-09T09:31:41;2.10;;;0.80;;
50543;SDS011;41176;44.032;20.900;2022-09-09T09:34:13;1.75;;;0.65;;
50543;SDS011;41176;44.032;20.900;2022-09-09T09:36:40;1.70;;;0.70;;
50543;SDS011;41176;44.032;20.900;2022-09-09T09:41:49;2.03;;;0.88;;
50543;SDS011;41176;44.032;20.900;2022-09-09T09:44:24;1.48;;;0.75;;
50543;SDS011;41176;44.032;20.900;2022-09-09T09:46:50;1.67;;;0.60;;
50543;SDS011;41176;44.032;20.900;2022-09-09T09:49:16;1.23;;;0.55;;
50543;SDS011;41176;44.032;20.900;2022-09-09T09:51:42;2.03;;;0.70;;
50543;SDS011;41176;44.032;20.900;2022-09-09T09:56:52;1.80;;;0.70;;
50543;SDS011;41176;44.032;20.900;2022-09-09T09:59:22;1.77;;;0.80;;
50543;SDS011;41176;44.032;20.900;2022-09-09T10:01:54;2.00;;;0.85;;
50543;SDS011;41176;44.032;20.900;2022-09-09T10:04:31;2.28;;;0.73;;
50543;SDS011;41176;44.032;20.900;2022-09-09T10:06:58;1.77;;;0.60;;
50543;SDS011;41176;44.032;20.900;2022-09-09T10:09:34;1.60;;;0.70;;
50543;SDS011;41176;44.032;20.900;2022-09-09T10:17:53;1.95;;;0.63;;
50543;SDS011;41176;44.032;20.900;2022-09-09T10:20:41;1.70;;;0.70;;
50543;SDS011;41176;44.032;20.900;2022-09-09T10:23:25;1.48;;;0.65;;
50543;SDS011;41176;44.032;20.900;2022-09-09T10:36:55;1.50;;;0.52;;
50543;SDS011;41176;44.032;20.900;2022-09-09T10:39:33;1.17;;;0.50;;
50543;SDS011;41176;44.032;20.900;2022-09-09T10:42:15;1.45;;;0.60;;
50543;SDS011;41176;44.032;20.900;2022-09-09T10:50:11;2.50;;;0.90;;
50543;SDS011;41176;44.032;20.900;2022-09-09T10:53:00;1.50;;;0.60;;
50543;SDS011;41176;44.032;20.900;2022-09-09T10:55:44;2.55;;;0.80;;
50543;SDS011;41176;44.032;20.900;2022-09-09T10:58:25;1.40;;;0.73;;
50543;SDS011;41176;44.032;20.900;2022-09-09T11:01:02;1.73;;;0.50;;
50543;SDS011;41176;44.032;20.900;2022-09-09T11:03:42;2.03;;;0.80;;
50543;SDS011;41176;44.032;20.900;2022-09-09T11:06:16;3.70;;;0.80;;
50543;SDS011;41176;44.032;20.900;2022-09-09T11:08:45;3.28;;;1.10;;
50543;SDS011;41176;44.032;20.900;2022-09-09T11:11:20;1.92;;;0.77;;
50543;SDS011;41176;44.032;20.900;2022-09-09T11:13:59;1.10;;;0.50;;
50543;SDS011;41176;44.032;20.900;2022-09-09T11:16:38;1.80;;;0.70;;
50543;SDS011;41176;44.032;20.900;2022-09-09T11:21:56;2.05;;;0.90;;
50543;SDS011;41176;44.032;20.900;2022-09-09T11:24:32;2.15;;;0.82;;
50543;SDS011;41176;44.032;20.900;2022-09-09T11:41:06;1.33;;;0.50;;
50543;SDS011;41176;44.032;20.900;2022-09-09T11:49:49;1.67;;;0.60;;
50543;SDS011;41176;44.032;20.900;2022-09-09T11:52:22;1.20;;;0.50;;
50543;SDS011;41176;44.032;20.900;2022-09-09T11:54:51;0.63;;;0.20;;
50543;SDS011;41176;44.032;20.900;2022-09-09T11:57:33;0.80;;;0.30;;
50543;SDS011;41176;44.032;20.900;2022-09-09T12:00:01;0.73;;;0.25;;
50543;SDS011;41176;44.032;20.900;2022-09-09T12:02:29;1.55;;;0.52;;
50543;SDS011;41176;44.032;20.900;2022-09-09T12:05:06;1.15;;;0.40;;
50543;SDS011;41176;44.032;20.900;2022-09-09T12:10:27;1.08;;;0.30;;
50543;SDS011;41176;44.032;20.900;2022-09-09T12:15:51;1.00;;;0.40;;
50543;SDS011;41176;44.032;20.900;2022-09-09T12:18:35;0.85;;;0.38;;
50543;SDS011;41176;44.032;20.900;2022-09-09T12:21:07;1.45;;;0.45;;
50543;SDS011;41176;44.032;20.900;2022-09-09T12:29:13;3.20;;;0.40;;
50543;SDS011;41176;44.032;20.900;2022-09-09T12:35:02;0.63;;;0.20;;
50543;SDS011;41176;44.032;20.900;2022-09-09T12:37:53;0.60;;;0.20;;
50543;SDS011;41176;44.032;20.900;2022-09-09T12:40:25;0.80;;;0.30;;
50543;SDS011;41176;44.032;20.900;2022-09-09T12:42:57;0.70;;;0.30;;
50543;SDS011;41176;44.032;20.900;2022-09-09T12:45:27;0.75;;;0.30;;
50543;SDS011;41176;44.032;20.900;2022-09-09T12:48:00;0.52;;;0.20;;
50543;SDS011;41176;44.032;20.900;2022-09-09T12:50:37;0.60;;;0.30;;
50543;SDS011;41176;44.032;20.900;2022-09-09T12:53:09;0.93;;;0.30;;
50543;SDS011;41176;44.032;20.900;2022-09-09T12:55:48;0.77;;;0.30;;
50543;SDS011;41176;44.032;20.900;2022-09-09T12:58:18;0.85;;;0.20;;
50543;SDS011;41176;44.032;20.900;2022-09-09T13:00:49;1.17;;;0.32;;
50543;SDS011;41176;44.032;20.900;2022-09-09T13:03:21;0.73;;;0.30;;
50543;SDS011;41176;44.032;20.900;2022-09-09T13:05:47;1.27;;;0.45;;
50543;SDS011;41176;44.032;20.900;2022-09-09T13:08:14;0.70;;;0.28;;
50543;SDS011;41176;44.032;20.900;2022-09-09T13:13:29;1.45;;;0.47;;
50543;SDS011;41176;44.032;20.900;2022-09-09T13:16:01;1.10;;;0.40;;
50543;SDS011;41176;44.032;20.900;2022-09-09T13:18:30;0.52;;;0.20;;
50543;SDS011;41176;44.032;20.900;2022-09-09T13:20:59;0.55;;;0.20;;
50543;SDS011;41176;44.032;20.900;2022-09-09T13:23:32;1.15;;;0.30;;
50543;SDS011;41176;44.032;20.900;2022-09-09T13:26:06;0.90;;;0.30;;
50543;SDS011;41176;44.032;20.900;2022-09-09T13:28:49;0.65;;;0.20;;
50543;SDS011;41176;44.032;20.900;2022-09-09T13:31:36;0.77;;;0.30;;
50543;SDS011;41176;44.032;20.900;2022-09-09T13:34:24;0.95;;;0.38;;
50543;SDS011;41176;44.032;20.900;2022-09-09T13:36:54;0.70;;;0.20;;
50543;SDS011;41176;44.032;20.900;2022-09-09T13:39:27;0.70;;;0.30;;
50543;SDS011;41176;44.032;20.900;2022-09-09T13:41:53;1.48;;;0.60;;
50543;SDS011;41176;44.032;20.900;2022-09-09T13:44:21;2.17;;;0.55;;
50543;SDS011;41176;44.032;20.900;2022-09-09T13:47:00;1.52;;;0.55;;
50543;SDS011;41176;44.032;20.900;2022-09-09T13:49:29;1.15;;;0.47;;
50543;SDS011;41176;44.032;20.900;2022-09-09T13:54:39;1.40;;;0.47;;
50543;SDS011;41176;44.032;20.900;2022-09-09T13:57:14;2.38;;;0.68;;
50543;SDS011;41176;44.032;20.900;2022-09-09T13:59:45;1.50;;;0.57;;
50543;SDS011;41176;44.032;20.900;2022-09-09T14:02:12;2.40;;;0.85;;
50543;SDS011;41176;44.032;20.900;2022-09-09T14:04:39;1.27;;;0.50;;
50543;SDS011;41176;44.032;20.900;2022-09-09T14:07:08;1.02;;;0.30;;
50543;SDS011;41176;44.032;20.900;2022-09-09T14:09:41;1.05;;;0.40;;
50543;SDS011;41176;44.032;20.900;2022-09-09T14:12:10;1.33;;;0.40;;
50543;SDS011;41176;44.032;20.900;2022-09-09T14:14:37;0.80;;;0.40;;
50543;SDS011;41176;44.032;20.900;2022-09-09T14:17:03;2.17;;;0.30;;
50543;SDS011;41176;44.032;20.900;2022-09-09T14:19:29;1.30;;;0.50;;
50543;SDS011;41176;44.032;20.900;2022-09-09T14:21:56;1.85;;;0.50;;
50543;SDS011;41176;44.032;20.900;2022-09-09T14:24:22;0.77;;;0.30;;
50543;SDS011;41176;44.032;20.900;2022-09-09T14:26:51;1.02;;;0.45;;
50543;SDS011;41176;44.032;20.900;2022-09-09T14:29:17;1.48;;;0.50;;
50543;SDS011;41176;44.032;20.900;2022-09-09T14:31:42;1.85;;;0.75;;
50543;SDS011;41176;44.032;20.900;2022-09-09T14:34:08;1.13;;;0.50;;
50543;SDS011;41176;44.032;20.900;2022-09-09T14:36:36;1.20;;;0.40;;
50543;SDS011;41176;44.032;20.900;2022-09-09T14:39:03;1.20;;;0.50;;
50543;SDS011;41176;44.032;20.900;2022-09-09T14:41:29;1.60;;;0.52;;
50543;SDS011;41176;44.032;20.900;2022-09-09T14:43:55;1.25;;;0.60;;
50543;SDS011;41176;44.032;20.900;2022-09-09T14:46:24;1.75;;;0.73;;
50543;SDS011;41176;44.032;20.900;2022-09-09T14:48:51;2.40;;;0.60;;
50543;SDS011;41176;44.032;20.900;2022-09-09T14:51:18;1.73;;;0.60;;
50543;SDS011;41176;44.032;20.900;2022-09-09T14:53:50;1.27;;;0.52;;
50543;SDS011;41176;44.032;20.900;2022-09-09T14:56:22;1.70;;;0.40;;
50543;SDS011;41176;44.032;20.900;2022-09-09T14:58:50;2.03;;;0.55;;
50543;SDS011;41176;44.032;20.900;2022-09-09T15:01:18;2.10;;;0.70;;
50543;SDS011;41176;44.032;20.900;2022-09-09T15:03:52;1.35;;;0.50;;
50543;SDS011;41176;44.032;20.900;2022-09-09T15:06:19;1.90;;;0.63;;
50543;SDS011;41176;44.032;20.900;2022-09-09T15:08:46;1.38;;;0.55;;
50543;SDS011;41176;44.032;20.900;2022-09-09T15:11:15;1.33;;;0.50;;
50543;SDS011;41176;44.032;20.900;2022-09-09T15:13:44;1.77;;;0.70;;
50543;SDS011;41176;44.032;20.900;2022-09-09T15:16:14;2.05;;;0.70;;
50543;SDS011;41176;44.032;20.900;2022-09-09T15:18:43;1.38;;;0.60;;
50543;SDS011;41176;44.032;20.900;2022-09-09T15:21:10;1.75;;;0.73;;
50543;SDS011;41176;44.032;20.900;2022-09-09T15:23:39;1.27;;;0.50;;
50543;SDS011;41176;44.032;20.900;2022-09-09T15:26:11;1.10;;;0.45;;
50543;SDS011;41176;44.032;20.900;2022-09-09T15:28:40;2.38;;;0.65;;
50543;SDS011;41176;44.032;20.900;2022-09-09T15:31:30;2.78;;;1.20;;
50543;SDS011;41176;44.032;20.900;2022-09-09T15:33:57;1.38;;;0.77;;
50543;SDS011;41176;44.032;20.900;2022-09-09T15:36:30;1.30;;;0.40;;
50543;SDS011;41176;44.032;20.900;2022-09-09T15:38:58;2.85;;;0.60;;
50543;SDS011;41176;44.032;20.900;2022-09-09T15:41:26;2.08;;;1.00;;
50543;SDS011;41176;44.032;20.900;2022-09-09T15:43:52;1.40;;;0.65;;
50543;SDS011;41176;44.032;20.900;2022-09-09T15:46:40;1.58;;;0.55;;
50543;SDS011;41176;44.032;20.900;2022-09-09T15:49:08;1.83;;;0.70;;
50543;SDS011;41176;44.032;20.900;2022-09-09T15:51:36;1.80;;;1.00;;
50543;SDS011;41176;44.032;20.900;2022-09-09T15:54:03;3.17;;;1.65;;
50543;SDS011;41176;44.032;20.900;2022-09-09T15:56:30;1.75;;;0.90;;
50543;SDS011;41176;44.032;20.900;2022-09-09T15:58:57;2.50;;;0.85;;
50543;SDS011;41176;44.032;20.900;2022-09-09T16:01:24;1.85;;;0.90;;
50543;SDS011;41176;44.032;20.900;2022-09-09T16:03:52;2.63;;;0.73;;
50543;SDS011;41176;44.032;20.900;2022-09-09T16:06:19;1.63;;;0.60;;
50543;SDS011;41176;44.032;20.900;2022-09-09T16:11:45;2.58;;;0.88;;
50543;SDS011;41176;44.032;20.900;2022-09-09T16:14:12;2.83;;;0.68;;
50543;SDS011;41176;44.032;20.900;2022-09-09T16:16:38;1.45;;;0.80;;
50543;SDS011;41176;44.032;20.900;2022-09-09T16:19:10;2.28;;;0.98;;
50543;SDS011;41176;44.032;20.900;2022-09-09T16:27:56;1.90;;;0.80;;
50543;SDS011;41176;44.032;20.900;2022-09-09T16:30:22;2.42;;;1.20;;
50543;SDS011;41176;44.032;20.900;2022-09-09T16:32:47;1.90;;;0.80;;
50543;SDS011;41176;44.032;20.900;2022-09-09T16:35:14;2.33;;;1.25;;
50543;SDS011;41176;44.032;20.900;2022-09-09T16:37:39;1.92;;;0.80;;
50543;SDS011;41176;44.032;20.900;2022-09-09T16:40:07;2.35;;;0.80;;
50543;SDS011;41176;44.032;20.900;2022-09-09T16:42:33;2.10;;;0.80;;
50543;SDS011;41176;44.032;20.900;2022-09-09T16:44:59;2.05;;;0.90;;
50543;SDS011;41176;44.032;20.900;2022-09-09T16:47:25;4.43;;;2.15;;
50543;SDS011;41176;44.032;20.900;2022-09-09T16:49:51;3.63;;;1.50;;
50543;SDS011;41176;44.032;20.900;2022-09-09T16:52:16;4.10;;;1.92;;
50543;SDS011;41176;44.032;20.900;2022-09-09T16:54:42;2.97;;;1.02;;
50543;SDS011;41176;44.032;20.900;2022-09-09T16:57:08;2.67;;;1.25;;
50543;SDS011;41176;44.032;20.900;2022-09-09T16:59:33;1.85;;;0.60;;
50543;SDS011;41176;44.032;20.900;2022-09-09T17:01:59;1.95;;;0.77;;
50543;SDS011;41176;44.032;20.900;2022-09-09T17:04:29;1.88;;;0.80;;
50543;SDS011;41176;44.032;20.900;2022-09-09T17:06:56;2.10;;;0.90;;
50543;SDS011;41176;44.032;20.900;2022-09-09T17:09:25;2.50;;;0.82;;
50543;SDS011;41176;44.032;20.900;2022-09-09T17:11:54;1.85;;;0.88;;
50543;SDS011;41176;44.032;20.900;2022-09-09T17:14:20;2.15;;;0.50;;
50543;SDS011;41176;44.032;20.900;2022-09-09T17:16:46;3.28;;;0.73;;
50543;SDS011;41176;44.032;20.900;2022-09-09T17:19:13;2.05;;;0.75;;
50543;SDS011;41176;44.032;20.900;2022-09-09T17:21:40;3.30;;;0.80;;